Clifford, Michigan
Current Conditions -  °F | °C
As of 12:15 PM on Friday 31 Oct 2014 (Local Time) from KCFS Reporting Station
Light Rain Light Rain  
Wind Chill:   Ceiling: 1500
Heat Index:   Visibility: 10mi
Dew Point:   Wind: 13mph
Humidity: 90%   Direction: 20°NNE
Pressure: 29.91"   Gusts: 18mph
Location:  43.31°N, 83.18°W
Report Text: KCFS 311615Z AUTO 02011G16KT 10SM -RA BKN015 OVC024 06/04 A2991 RMK AO2 T00550040
Loading
Personal Weather Stations






























Interactive Weather Map
Tropical Storm Tracking
New forecast layout! Learn more

10-Day Weather Forecast

Advertisements
Track Severe Weather on mobile